sensor_id;sensor_type;location;lat;lon;timestamp;P1;durP1;ratioP1;P2;durP2;ratioP2
4434;SDS011;46552;52.150;8.428;2022-12-07T00:01:29;44.37;;;22.53;;
4434;SDS011;46552;52.150;8.428;2022-12-07T00:03:58;43.47;;;23.27;;
4434;SDS011;46552;52.150;8.428;2022-12-07T00:06:30;40.60;;;22.00;;
4434;SDS011;46552;52.150;8.428;2022-12-07T00:08:58;47.23;;;23.33;;
4434;SDS011;46552;52.150;8.428;2022-12-07T00:11:26;47.80;;;25.33;;
4434;SDS011;46552;52.150;8.428;2022-12-07T00:13:55;42.17;;;23.63;;
4434;SDS011;46552;52.150;8.428;2022-12-07T00:16:24;43.67;;;23.03;;
4434;SDS011;46552;52.150;8.428;2022-12-07T00:18:53;45.37;;;23.63;;
4434;SDS011;46552;52.150;8.428;2022-12-07T00:21:22;44.47;;;23.73;;
4434;SDS011;46552;52.150;8.428;2022-12-07T00:23:51;42.53;;;24.70;;
4434;SDS011;46552;52.150;8.428;2022-12-07T00:26:20;51.10;;;25.07;;
4434;SDS011;46552;52.150;8.428;2022-12-07T00:28:50;42.83;;;22.43;;
4434;SDS011;46552;52.150;8.428;2022-12-07T00:31:19;42.67;;;22.17;;
4434;SDS011;46552;52.150;8.428;2022-12-07T00:33:48;44.47;;;24.37;;
4434;SDS011;46552;52.150;8.428;2022-12-07T00:36:16;47.23;;;22.50;;
4434;SDS011;46552;52.150;8.428;2022-12-07T00:38:44;33.97;;;17.17;;
4434;SDS011;46552;52.150;8.428;2022-12-07T00:41:12;41.03;;;22.53;;
4434;SDS011;46552;52.150;8.428;2022-12-07T00:43:43;40.60;;;23.43;;
4434;SDS011;46552;52.150;8.428;2022-12-07T00:46:13;39.07;;;22.27;;
4434;SDS011;46552;52.150;8.428;2022-12-07T00:48:42;38.07;;;22.27;;
4434;SDS011;46552;52.150;8.428;2022-12-07T00:51:09;41.90;;;21.47;;
4434;SDS011;46552;52.150;8.428;2022-12-07T00:53:37;46.00;;;23.13;;
4434;SDS011;46552;52.150;8.428;2022-12-07T00:56:06;39.33;;;20.10;;
4434;SDS011;46552;52.150;8.428;2022-12-07T00:58:34;34.97;;;19.57;;
4434;SDS011;46552;52.150;8.428;2022-12-07T01:01:02;34.47;;;17.60;;
4434;SDS011;46552;52.150;8.428;2022-12-07T01:03:31;38.40;;;20.33;;
4434;SDS011;46552;52.150;8.428;2022-12-07T01:05:58;37.60;;;20.80;;
4434;SDS011;46552;52.150;8.428;2022-12-07T01:08:26;37.27;;;19.50;;
4434;SDS011;46552;52.150;8.428;2022-12-07T01:10:57;30.70;;;17.90;;
4434;SDS011;46552;52.150;8.428;2022-12-07T01:13:26;40.30;;;20.87;;
4434;SDS011;46552;52.150;8.428;2022-12-07T01:15:55;40.80;;;19.40;;
4434;SDS011;46552;52.150;8.428;2022-12-07T01:18:23;36.27;;;17.80;;
4434;SDS011;46552;52.150;8.428;2022-12-07T01:20:58;35.97;;;19.13;;
4434;SDS011;46552;52.150;8.428;2022-12-07T01:23:26;34.27;;;18.37;;
4434;SDS011;46552;52.150;8.428;2022-12-07T01:25:54;30.87;;;16.73;;
4434;SDS011;46552;52.150;8.428;2022-12-07T01:28:23;36.07;;;18.27;;
4434;SDS011;46552;52.150;8.428;2022-12-07T01:31:00;28.93;;;16.50;;
4434;SDS011;46552;52.150;8.428;2022-12-07T01:33:30;27.47;;;14.97;;
4434;SDS011;46552;52.150;8.428;2022-12-07T01:36:03;31.47;;;14.93;;
4434;SDS011;46552;52.150;8.428;2022-12-07T01:38:31;31.30;;;14.80;;
4434;SDS011;46552;52.150;8.428;2022-12-07T01:41:00;22.00;;;12.03;;
4434;SDS011;46552;52.150;8.428;2022-12-07T01:43:29;22.37;;;13.00;;
4434;SDS011;46552;52.150;8.428;2022-12-07T01:45:58;26.40;;;13.20;;
4434;SDS011;46552;52.150;8.428;2022-12-07T01:48:26;24.40;;;13.63;;
4434;SDS011;46552;52.150;8.428;2022-12-07T01:50:57;23.53;;;13.30;;
4434;SDS011;46552;52.150;8.428;2022-12-07T01:53:29;24.13;;;13.37;;
4434;SDS011;46552;52.150;8.428;2022-12-07T01:55:58;22.70;;;12.57;;
4434;SDS011;46552;52.150;8.428;2022-12-07T01:58:26;24.37;;;12.47;;
4434;SDS011;46552;52.150;8.428;2022-12-07T02:00:55;26.43;;;12.67;;
4434;SDS011;46552;52.150;8.428;2022-12-07T02:03:24;25.40;;;12.80;;
4434;SDS011;46552;52.150;8.428;2022-12-07T02:05:55;24.63;;;13.57;;
4434;SDS011;46552;52.150;8.428;2022-12-07T02:08:24;22.87;;;13.63;;
4434;SDS011;46552;52.150;8.428;2022-12-07T02:10:54;23.80;;;12.03;;
4434;SDS011;46552;52.150;8.428;2022-12-07T02:13:24;23.40;;;13.97;;
4434;SDS011;46552;52.150;8.428;2022-12-07T02:16:04;22.60;;;11.87;;
4434;SDS011;46552;52.150;8.428;2022-12-07T02:18:43;29.53;;;13.77;;
4434;SDS011;46552;52.150;8.428;2022-12-07T02:21:17;26.60;;;12.53;;
4434;SDS011;46552;52.150;8.428;2022-12-07T02:23:58;21.97;;;12.90;;
4434;SDS011;46552;52.150;8.428;2022-12-07T02:29:44;23.00;;;12.47;;
4434;SDS011;46552;52.150;8.428;2022-12-07T02:32:16;31.87;;;12.47;;
4434;SDS011;46552;52.150;8.428;2022-12-07T02:34:48;19.30;;;10.83;;
4434;SDS011;46552;52.150;8.428;2022-12-07T02:37:32;17.63;;;9.70;;
4434;SDS011;46552;52.150;8.428;2022-12-07T02:40:04;29.20;;;10.80;;
4434;SDS011;46552;52.150;8.428;2022-12-07T02:42:36;20.50;;;11.23;;
4434;SDS011;46552;52.150;8.428;2022-12-07T02:45:09;23.47;;;10.53;;
4434;SDS011;46552;52.150;8.428;2022-12-07T02:47:38;22.60;;;11.90;;
4434;SDS011;46552;52.150;8.428;2022-12-07T02:50:07;20.37;;;10.60;;
4434;SDS011;46552;52.150;8.428;2022-12-07T02:52:37;22.73;;;10.60;;
4434;SDS011;46552;52.150;8.428;2022-12-07T02:55:07;22.63;;;10.73;;
4434;SDS011;46552;52.150;8.428;2022-12-07T02:57:40;22.63;;;9.03;;
4434;SDS011;46552;52.150;8.428;2022-12-07T03:00:19;15.97;;;9.43;;
4434;SDS011;46552;52.150;8.428;2022-12-07T03:02:49;18.30;;;9.90;;
4434;SDS011;46552;52.150;8.428;2022-12-07T03:05:23;17.67;;;9.23;;
4434;SDS011;46552;52.150;8.428;2022-12-07T03:08:05;20.50;;;9.70;;
4434;SDS011;46552;52.150;8.428;2022-12-07T03:10:40;26.67;;;10.67;;
4434;SDS011;46552;52.150;8.428;2022-12-07T03:13:19;17.07;;;8.40;;
4434;SDS011;46552;52.150;8.428;2022-12-07T03:15:53;17.43;;;8.03;;
4434;SDS011;46552;52.150;8.428;2022-12-07T03:18:25;14.37;;;6.90;;
4434;SDS011;46552;52.150;8.428;2022-12-07T03:20:57;17.37;;;9.03;;
4434;SDS011;46552;52.150;8.428;2022-12-07T03:23:28;15.13;;;7.40;;
4434;SDS011;46552;52.150;8.428;2022-12-07T03:25:58;16.90;;;6.90;;
4434;SDS011;46552;52.150;8.428;2022-12-07T03:28:28;20.87;;;7.40;;
4434;SDS011;46552;52.150;8.428;2022-12-07T03:31:02;15.10;;;6.90;;
4434;SDS011;46552;52.150;8.428;2022-12-07T03:33:36;16.93;;;5.70;;
4434;SDS011;46552;52.150;8.428;2022-12-07T03:36:08;13.20;;;6.10;;
4434;SDS011;46552;52.150;8.428;2022-12-07T03:38:40;15.13;;;6.83;;
4434;SDS011;46552;52.150;8.428;2022-12-07T03:41:11;15.93;;;6.67;;
4434;SDS011;46552;52.150;8.428;2022-12-07T03:43:43;13.80;;;6.10;;
4434;SDS011;46552;52.150;8.428;2022-12-07T03:46:15;16.10;;;6.13;;
4434;SDS011;46552;52.150;8.428;2022-12-07T03:48:50;13.20;;;5.23;;
4434;SDS011;46552;52.150;8.428;2022-12-07T03:51:26;16.23;;;5.70;;
4434;SDS011;46552;52.150;8.428;2022-12-07T03:54:02;16.53;;;6.30;;
4434;SDS011;46552;52.150;8.428;2022-12-07T03:56:35;22.77;;;9.13;;
4434;SDS011;46552;52.150;8.428;2022-12-07T03:59:04;22.77;;;5.93;;
4434;SDS011;46552;52.150;8.428;2022-12-07T04:01:33;14.03;;;6.67;;
4434;SDS011;46552;52.150;8.428;2022-12-07T04:04:00;14.50;;;7.50;;
4434;SDS011;46552;52.150;8.428;2022-12-07T04:06:27;17.77;;;7.77;;
4434;SDS011;46552;52.150;8.428;2022-12-07T04:08:54;18.50;;;5.93;;
4434;SDS011;46552;52.150;8.428;2022-12-07T04:11:21;17.93;;;6.00;;
4434;SDS011;46552;52.150;8.428;2022-12-07T04:13:48;16.27;;;6.03;;
4434;SDS011;46552;52.150;8.428;2022-12-07T04:16:34;12.37;;;5.80;;
4434;SDS011;46552;52.150;8.428;2022-12-07T04:19:01;11.90;;;5.60;;
4434;SDS011;46552;52.150;8.428;2022-12-07T04:21:28;23.93;;;6.17;;
4434;SDS011;46552;52.150;8.428;2022-12-07T04:23:55;21.50;;;7.00;;
4434;SDS011;46552;52.150;8.428;2022-12-07T04:26:22;12.90;;;5.93;;
4434;SDS011;46552;52.150;8.428;2022-12-07T04:28:49;12.40;;;5.57;;
4434;SDS011;46552;52.150;8.428;2022-12-07T04:31:16;14.60;;;7.10;;
4434;SDS011;46552;52.150;8.428;2022-12-07T04:33:45;12.93;;;5.60;;
4434;SDS011;46552;52.150;8.428;2022-12-07T04:36:12;18.63;;;7.20;;
4434;SDS011;46552;52.150;8.428;2022-12-07T04:38:39;19.20;;;6.97;;
4434;SDS011;46552;52.150;8.428;2022-12-07T04:41:07;12.73;;;5.33;;
4434;SDS011;46552;52.150;8.428;2022-12-07T04:43:35;20.00;;;6.90;;
4434;SDS011;46552;52.150;8.428;2022-12-07T04:46:03;14.33;;;6.63;;
4434;SDS011;46552;52.150;8.428;2022-12-07T04:48:30;11.93;;;5.03;;
4434;SDS011;46552;52.150;8.428;2022-12-07T04:50:59;12.70;;;5.53;;
4434;SDS011;46552;52.150;8.428;2022-12-07T04:53:27;15.90;;;6.50;;
4434;SDS011;46552;52.150;8.428;2022-12-07T04:55:56;10.30;;;5.83;;
4434;SDS011;46552;52.150;8.428;2022-12-07T04:58:23;20.80;;;6.50;;
4434;SDS011;46552;52.150;8.428;2022-12-07T05:00:53;11.70;;;5.73;;
4434;SDS011;46552;52.150;8.428;2022-12-07T05:03:20;12.67;;;6.80;;
4434;SDS011;46552;52.150;8.428;2022-12-07T05:05:48;14.20;;;5.63;;
4434;SDS011;46552;52.150;8.428;2022-12-07T05:08:17;14.53;;;5.47;;
4434;SDS011;46552;52.150;8.428;2022-12-07T05:10:44;15.53;;;5.43;;
4434;SDS011;46552;52.150;8.428;2022-12-07T05:13:11;9.93;;;5.57;;
4434;SDS011;46552;52.150;8.428;2022-12-07T05:15:38;15.97;;;6.83;;
4434;SDS011;46552;52.150;8.428;2022-12-07T05:18:07;16.73;;;5.03;;
4434;SDS011;46552;52.150;8.428;2022-12-07T05:20:35;12.87;;;4.90;;
4434;SDS011;46552;52.150;8.428;2022-12-07T05:23:02;9.43;;;5.30;;
4434;SDS011;46552;52.150;8.428;2022-12-07T05:25:31;16.73;;;4.50;;
4434;SDS011;46552;52.150;8.428;2022-12-07T05:27:58;15.33;;;5.50;;
4434;SDS011;46552;52.150;8.428;2022-12-07T05:30:26;14.20;;;5.70;;
4434;SDS011;46552;52.150;8.428;2022-12-07T05:32:54;17.13;;;4.93;;
4434;SDS011;46552;52.150;8.428;2022-12-07T05:35:22;18.43;;;4.23;;
4434;SDS011;46552;52.150;8.428;2022-12-07T05:37:49;11.23;;;4.97;;
4434;SDS011;46552;52.150;8.428;2022-12-07T05:40:18;13.03;;;4.37;;
4434;SDS011;46552;52.150;8.428;2022-12-07T05:42:46;18.03;;;4.60;;
4434;SDS011;46552;52.150;8.428;2022-12-07T05:45:14;11.93;;;3.90;;
4434;SDS011;46552;52.150;8.428;2022-12-07T05:47:41;11.47;;;3.83;;
4434;SDS011;46552;52.150;8.428;2022-12-07T05:50:08;10.93;;;3.33;;
4434;SDS011;46552;52.150;8.428;2022-12-07T05:52:35;8.47;;;3.50;;
4434;SDS011;46552;52.150;8.428;2022-12-07T05:55:03;16.40;;;3.30;;
4434;SDS011;46552;52.150;8.428;2022-12-07T05:57:32;14.33;;;3.03;;
4434;SDS011;46552;52.150;8.428;2022-12-07T06:00:02;17.43;;;3.97;;
4434;SDS011;46552;52.150;8.428;2022-12-07T06:02:28;10.83;;;3.00;;
4434;SDS011;46552;52.150;8.428;2022-12-07T06:04:56;17.10;;;4.57;;
4434;SDS011;46552;52.150;8.428;2022-12-07T06:07:23;12.00;;;3.57;;
4434;SDS011;46552;52.150;8.428;2022-12-07T06:09:50;14.20;;;3.20;;
4434;SDS011;46552;52.150;8.428;2022-12-07T06:12:17;15.23;;;3.27;;
4434;SDS011;46552;52.150;8.428;2022-12-07T06:15:00;13.30;;;3.97;;
4434;SDS011;46552;52.150;8.428;2022-12-07T06:17:27;8.07;;;3.33;;
4434;SDS011;46552;52.150;8.428;2022-12-07T06:19:55;8.43;;;4.00;;
4434;SDS011;46552;52.150;8.428;2022-12-07T06:22:22;11.33;;;3.73;;
4434;SDS011;46552;52.150;8.428;2022-12-07T06:24:49;9.73;;;3.43;;
4434;SDS011;46552;52.150;8.428;2022-12-07T06:27:16;13.93;;;4.00;;
4434;SDS011;46552;52.150;8.428;2022-12-07T06:29:46;11.30;;;3.87;;
4434;SDS011;46552;52.150;8.428;2022-12-07T06:32:14;10.40;;;3.70;;
4434;SDS011;46552;52.150;8.428;2022-12-07T06:34:41;11.20;;;4.70;;
4434;SDS011;46552;52.150;8.428;2022-12-07T06:37:08;15.03;;;4.30;;
4434;SDS011;46552;52.150;8.428;2022-12-07T06:39:35;13.93;;;4.57;;
4434;SDS011;46552;52.150;8.428;2022-12-07T06:42:04;10.80;;;4.63;;
4434;SDS011;46552;52.150;8.428;2022-12-07T06:44:31;12.73;;;4.30;;
4434;SDS011;46552;52.150;8.428;2022-12-07T06:46:58;12.23;;;3.90;;
4434;SDS011;46552;52.150;8.428;2022-12-07T06:49:27;17.23;;;4.93;;
4434;SDS011;46552;52.150;8.428;2022-12-07T06:51:54;13.90;;;5.23;;
4434;SDS011;46552;52.150;8.428;2022-12-07T06:54:21;9.90;;;4.63;;
4434;SDS011;46552;52.150;8.428;2022-12-07T06:56:48;14.27;;;3.90;;
4434;SDS011;46552;52.150;8.428;2022-12-07T06:59:16;16.53;;;5.30;;
4434;SDS011;46552;52.150;8.428;2022-12-07T07:01:43;13.47;;;4.13;;
4434;SDS011;46552;52.150;8.428;2022-12-07T07:04:10;11.10;;;4.77;;
4434;SDS011;46552;52.150;8.428;2022-12-07T07:06:40;12.53;;;4.50;;
4434;SDS011;46552;52.150;8.428;2022-12-07T07:09:07;10.10;;;5.40;;
4434;SDS011;46552;52.150;8.428;2022-12-07T07:11:35;12.17;;;4.20;;
4434;SDS011;46552;52.150;8.428;2022-12-07T07:14:02;10.03;;;4.37;;
4434;SDS011;46552;52.150;8.428;2022-12-07T07:16:29;11.17;;;4.00;;
4434;SDS011;46552;52.150;8.428;2022-12-07T07:18:57;16.13;;;4.93;;
4434;SDS011;46552;52.150;8.428;2022-12-07T07:21:25;9.10;;;3.63;;
4434;SDS011;46552;52.150;8.428;2022-12-07T07:23:53;10.73;;;4.23;;
4434;SDS011;46552;52.150;8.428;2022-12-07T07:26:22;11.83;;;3.93;;
4434;SDS011;46552;52.150;8.428;2022-12-07T07:28:49;12.73;;;3.60;;
4434;SDS011;46552;52.150;8.428;2022-12-07T07:31:16;12.07;;;4.10;;
4434;SDS011;46552;52.150;8.428;2022-12-07T07:33:44;10.77;;;4.10;;
4434;SDS011;46552;52.150;8.428;2022-12-07T07:36:11;15.30;;;4.20;;
4434;SDS011;46552;52.150;8.428;2022-12-07T07:38:38;5.93;;;3.03;;
4434;SDS011;46552;52.150;8.428;2022-12-07T07:41:07;8.07;;;3.33;;
4434;SDS011;46552;52.150;8.428;2022-12-07T07:43:34;10.03;;;3.83;;
4434;SDS011;46552;52.150;8.428;2022-12-07T07:46:01;5.40;;;3.47;;
4434;SDS011;46552;52.150;8.428;2022-12-07T07:48:28;12.63;;;4.30;;
4434;SDS011;46552;52.150;8.428;2022-12-07T07:50:56;11.60;;;4.63;;
4434;SDS011;46552;52.150;8.428;2022-12-07T07:53:24;11.33;;;4.30;;
4434;SDS011;46552;52.150;8.428;2022-12-07T07:55:51;13.80;;;7.30;;
4434;SDS011;46552;52.150;8.428;2022-12-07T07:58:21;10.13;;;3.80;;
4434;SDS011;46552;52.150;8.428;2022-12-07T08:00:48;9.93;;;3.83;;
4434;SDS011;46552;52.150;8.428;2022-12-07T08:03:16;9.13;;;3.23;;
4434;SDS011;46552;52.150;8.428;2022-12-07T08:05:43;13.43;;;3.40;;
4434;SDS011;46552;52.150;8.428;2022-12-07T08:08:10;8.20;;;2.90;;
4434;SDS011;46552;52.150;8.428;2022-12-07T08:10:37;12.43;;;3.40;;
4434;SDS011;46552;52.150;8.428;2022-12-07T08:13:05;16.93;;;3.60;;
4434;SDS011;46552;52.150;8.428;2022-12-07T08:15:41;10.07;;;2.70;;
4434;SDS011;46552;52.150;8.428;2022-12-07T08:18:10;9.43;;;2.10;;
4434;SDS011;46552;52.150;8.428;2022-12-07T08:20:37;14.10;;;3.77;;
4434;SDS011;46552;52.150;8.428;2022-12-07T08:23:05;6.40;;;2.90;;
4434;SDS011;46552;52.150;8.428;2022-12-07T08:25:34;10.40;;;2.80;;
4434;SDS011;46552;52.150;8.428;2022-12-07T08:28:01;6.97;;;3.23;;
4434;SDS011;46552;52.150;8.428;2022-12-07T08:30:29;6.97;;;2.87;;
4434;SDS011;46552;52.150;8.428;2022-12-07T08:32:58;8.40;;;3.03;;
4434;SDS011;46552;52.150;8.428;2022-12-07T08:35:27;10.60;;;3.07;;
4434;SDS011;46552;52.150;8.428;2022-12-07T08:37:55;8.47;;;2.40;;
4434;SDS011;46552;52.150;8.428;2022-12-07T08:40:23;8.43;;;2.77;;
4434;SDS011;46552;52.150;8.428;2022-12-07T08:42:50;7.23;;;4.07;;
4434;SDS011;46552;52.150;8.428;2022-12-07T08:45:17;9.40;;;3.20;;
4434;SDS011;46552;52.150;8.428;2022-12-07T08:47:47;15.53;;;3.47;;
4434;SDS011;46552;52.150;8.428;2022-12-07T08:50:18;9.27;;;2.70;;
4434;SDS011;46552;52.150;8.428;2022-12-07T08:52:47;7.27;;;2.43;;
4434;SDS011;46552;52.150;8.428;2022-12-07T08:55:16;5.00;;;2.57;;
4434;SDS011;46552;52.150;8.428;2022-12-07T08:57:44;9.70;;;2.87;;
4434;SDS011;46552;52.150;8.428;2022-12-07T09:00:12;10.37;;;2.37;;
4434;SDS011;46552;52.150;8.428;2022-12-07T09:02:42;6.87;;;2.67;;
4434;SDS011;46552;52.150;8.428;2022-12-07T09:05:10;6.00;;;2.47;;
4434;SDS011;46552;52.150;8.428;2022-12-07T09:07:41;6.10;;;2.27;;
4434;SDS011;46552;52.150;8.428;2022-12-07T09:10:10;4.77;;;2.33;;
4434;SDS011;46552;52.150;8.428;2022-12-07T09:12:38;7.00;;;2.30;;
4434;SDS011;46552;52.150;8.428;2022-12-07T09:15:07;9.73;;;2.77;;
4434;SDS011;46552;52.150;8.428;2022-12-07T09:17:35;13.40;;;2.30;;
4434;SDS011;46552;52.150;8.428;2022-12-07T09:20:02;10.77;;;3.00;;
4434;SDS011;46552;52.150;8.428;2022-12-07T09:22:31;9.13;;;2.50;;
4434;SDS011;46552;52.150;8.428;2022-12-07T09:25:00;6.60;;;2.73;;
4434;SDS011;46552;52.150;8.428;2022-12-07T09:27:28;11.40;;;3.90;;
4434;SDS011;46552;52.150;8.428;2022-12-07T09:29:55;8.00;;;2.00;;
4434;SDS011;46552;52.150;8.428;2022-12-07T09:32:22;11.23;;;2.37;;
4434;SDS011;46552;52.150;8.428;2022-12-07T09:34:49;11.13;;;2.57;;
4434;SDS011;46552;52.150;8.428;2022-12-07T09:37:16;14.77;;;2.07;;
4434;SDS011;46552;52.150;8.428;2022-12-07T09:39:44;6.80;;;2.20;;
4434;SDS011;46552;52.150;8.428;2022-12-07T09:42:17;14.60;;;3.20;;
4434;SDS011;46552;52.150;8.428;2022-12-07T09:44:53;13.40;;;3.60;;
4434;SDS011;46552;52.150;8.428;2022-12-07T09:47:21;15.53;;;3.17;;
4434;SDS011;46552;52.150;8.428;2022-12-07T09:49:50;8.90;;;2.77;;
4434;SDS011;46552;52.150;8.428;2022-12-07T09:52:19;7.67;;;3.10;;
4434;SDS011;46552;52.150;8.428;2022-12-07T09:54:51;8.80;;;3.47;;
4434;SDS011;46552;52.150;8.428;2022-12-07T09:57:26;10.30;;;2.67;;
4434;SDS011;46552;52.150;8.428;2022-12-07T09:59:56;12.00;;;3.37;;
4434;SDS011;46552;52.150;8.428;2022-12-07T10:02:33;8.00;;;3.07;;
4434;SDS011;46552;52.150;8.428;2022-12-07T10:05:03;4.53;;;1.90;;
4434;SDS011;46552;52.150;8.428;2022-12-07T10:07:32;11.70;;;2.93;;
4434;SDS011;46552;52.150;8.428;2022-12-07T10:10:02;9.80;;;2.50;;
4434;SDS011;46552;52.150;8.428;2022-12-07T10:12:32;7.50;;;2.80;;
4434;SDS011;46552;52.150;8.428;2022-12-07T10:15:19;7.57;;;2.67;;
4434;SDS011;46552;52.150;8.428;2022-12-07T10:17:47;13.20;;;2.97;;
4434;SDS011;46552;52.150;8.428;2022-12-07T10:20:18;14.80;;;3.60;;
4434;SDS011;46552;52.150;8.428;2022-12-07T10:22:55;7.00;;;2.20;;
4434;SDS011;46552;52.150;8.428;2022-12-07T10:25:25;7.70;;;3.20;;
4434;SDS011;46552;52.150;8.428;2022-12-07T10:27:58;11.50;;;4.67;;
4434;SDS011;46552;52.150;8.428;2022-12-07T10:30:27;9.10;;;2.83;;
4434;SDS011;46552;52.150;8.428;2022-12-07T10:32:55;15.50;;;3.60;;
4434;SDS011;46552;52.150;8.428;2022-12-07T10:35:24;20.00;;;4.60;;
4434;SDS011;46552;52.150;8.428;2022-12-07T10:37:53;10.33;;;2.70;;
4434;SDS011;46552;52.150;8.428;2022-12-07T10:40:27;8.23;;;2.80;;
4434;SDS011;46552;52.150;8.428;2022-12-07T10:43:17;12.40;;;2.77;;
4434;SDS011;46552;52.150;8.428;2022-12-07T10:48:40;12.50;;;3.13;;
4434;SDS011;46552;52.150;8.428;2022-12-07T10:51:18;7.27;;;2.60;;
4434;SDS011;46552;52.150;8.428;2022-12-07T10:53:57;9.17;;;2.47;;
4434;SDS011;46552;52.150;8.428;2022-12-07T10:56:36;11.60;;;2.97;;
4434;SDS011;46552;52.150;8.428;2022-12-07T11:02:32;12.23;;;3.33;;
4434;SDS011;46552;52.150;8.428;2022-12-07T11:05:12;21.57;;;3.67;;
4434;SDS011;46552;52.150;8.428;2022-12-07T11:07:49;7.37;;;2.73;;
4434;SDS011;46552;52.150;8.428;2022-12-07T11:10:25;10.57;;;2.70;;
4434;SDS011;46552;52.150;8.428;2022-12-07T11:13:01;17.60;;;4.17;;
4434;SDS011;46552;52.150;8.428;2022-12-07T11:15:45;10.23;;;2.70;;
4434;SDS011;46552;52.150;8.428;2022-12-07T11:18:22;9.63;;;3.97;;
4434;SDS011;46552;52.150;8.428;2022-12-07T11:20:55;10.63;;;2.33;;
4434;SDS011;46552;52.150;8.428;2022-12-07T11:23:37;10.23;;;2.70;;
4434;SDS011;46552;52.150;8.428;2022-12-07T11:26:14;7.50;;;2.23;;
4434;SDS011;46552;52.150;8.428;2022-12-07T11:28:59;7.20;;;2.77;;
4434;SDS011;46552;52.150;8.428;2022-12-07T11:31:37;10.93;;;2.60;;
4434;SDS011;46552;52.150;8.428;2022-12-07T11:34:20;13.63;;;3.60;;
4434;SDS011;46552;52.150;8.428;2022-12-07T11:36:58;4.90;;;2.13;;
4434;SDS011;46552;52.150;8.428;2022-12-07T11:39:30;10.50;;;2.60;;
4434;SDS011;46552;52.150;8.428;2022-12-07T11:42:04;6.37;;;2.00;;
4434;SDS011;46552;52.150;8.428;2022-12-07T11:44:36;8.53;;;3.70;;
4434;SDS011;46552;52.150;8.428;2022-12-07T11:47:13;5.73;;;3.07;;
4434;SDS011;46552;52.150;8.428;2022-12-07T11:49:47;12.77;;;2.63;;
4434;SDS011;46552;52.150;8.428;2022-12-07T11:52:22;10.20;;;2.60;;
4434;SDS011;46552;52.150;8.428;2022-12-07T11:54:57;11.97;;;2.47;;
4434;SDS011;46552;52.150;8.428;2022-12-07T11:57:30;4.67;;;2.10;;
4434;SDS011;46552;52.150;8.428;2022-12-07T12:00:05;12.27;;;2.60;;
4434;SDS011;46552;52.150;8.428;2022-12-07T12:02:43;13.90;;;2.80;;
4434;SDS011;46552;52.150;8.428;2022-12-07T12:05:18;10.73;;;2.10;;
4434;SDS011;46552;52.150;8.428;2022-12-07T12:07:48;10.37;;;2.60;;
4434;SDS011;46552;52.150;8.428;2022-12-07T12:10:21;8.87;;;2.13;;
4434;SDS011;46552;52.150;8.428;2022-12-07T12:13:00;7.40;;;2.63;;
4434;SDS011;46552;52.150;8.428;2022-12-07T12:15:51;6.20;;;1.63;;
4434;SDS011;46552;52.150;8.428;2022-12-07T12:18:45;7.97;;;1.80;;
4434;SDS011;46552;52.150;8.428;2022-12-07T12:21:26;8.40;;;2.27;;
4434;SDS011;46552;52.150;8.428;2022-12-07T12:23:55;6.10;;;2.03;;
4434;SDS011;46552;52.150;8.428;2022-12-07T12:26:29;9.10;;;2.60;;
4434;SDS011;46552;52.150;8.428;2022-12-07T12:28:58;8.10;;;2.43;;
4434;SDS011;46552;52.150;8.428;2022-12-07T12:31:32;8.30;;;2.33;;
4434;SDS011;46552;52.150;8.428;2022-12-07T12:34:29;12.47;;;3.20;;
4434;SDS011;46552;52.150;8.428;2022-12-07T12:36:57;8.27;;;2.30;;
4434;SDS011;46552;52.150;8.428;2022-12-07T12:39:25;15.60;;;2.30;;
4434;SDS011;46552;52.150;8.428;2022-12-07T12:41:57;20.23;;;3.30;;
4434;SDS011;46552;52.150;8.428;2022-12-07T12:44:40;9.97;;;2.50;;
4434;SDS011;46552;52.150;8.428;2022-12-07T12:47:52;8.40;;;2.27;;
4434;SDS011;46552;52.150;8.428;2022-12-07T12:50:27;9.83;;;2.30;;
4434;SDS011;46552;52.150;8.428;2022-12-07T12:53:11;10.70;;;2.77;;
4434;SDS011;46552;52.150;8.428;2022-12-07T12:58:42;14.90;;;2.80;;
4434;SDS011;46552;52.150;8.428;2022-12-07T13:10:22;4.00;;;1.83;;
4434;SDS011;46552;52.150;8.428;2022-12-07T13:13:29;7.53;;;2.63;;
4434;SDS011;46552;52.150;8.428;2022-12-07T13:25:17;6.33;;;2.90;;
4434;SDS011;46552;52.150;8.428;2022-12-07T13:28:02;6.87;;;2.30;;
4434;SDS011;46552;52.150;8.428;2022-12-07T13:30:39;13.30;;;2.93;;
4434;SDS011;46552;52.150;8.428;2022-12-07T13:33:12;18.30;;;3.10;;
4434;SDS011;46552;52.150;8.428;2022-12-07T13:35:43;11.77;;;2.20;;
4434;SDS011;46552;52.150;8.428;2022-12-07T13:38:16;8.60;;;2.40;;
4434;SDS011;46552;52.150;8.428;2022-12-07T13:41:01;18.17;;;3.33;;
4434;SDS011;46552;52.150;8.428;2022-12-07T13:43:29;10.70;;;2.33;;
4434;SDS011;46552;52.150;8.428;2022-12-07T13:45:57;11.03;;;2.73;;
4434;SDS011;46552;52.150;8.428;2022-12-07T13:48:28;8.13;;;2.80;;
4434;SDS011;46552;52.150;8.428;2022-12-07T13:50:59;13.77;;;2.60;;
4434;SDS011;46552;52.150;8.428;2022-12-07T13:53:27;7.93;;;3.00;;
4434;SDS011;46552;52.150;8.428;2022-12-07T13:55:56;7.00;;;2.30;;
4434;SDS011;46552;52.150;8.428;2022-12-07T13:58:25;9.53;;;1.90;;
4434;SDS011;46552;52.150;8.428;2022-12-07T14:00:56;5.90;;;2.40;;
4434;SDS011;46552;52.150;8.428;2022-12-07T14:03:29;9.10;;;2.30;;
4434;SDS011;46552;52.150;8.428;2022-12-07T14:06:13;11.03;;;2.87;;
4434;SDS011;46552;52.150;8.428;2022-12-07T14:08:43;11.43;;;2.90;;
4434;SDS011;46552;52.150;8.428;2022-12-07T14:11:13;8.80;;;2.57;;
4434;SDS011;46552;52.150;8.428;2022-12-07T14:13:58;12.93;;;2.43;;
4434;SDS011;46552;52.150;8.428;2022-12-07T14:16:28;12.90;;;2.17;;
4434;SDS011;46552;52.150;8.428;2022-12-07T14:18:57;17.03;;;2.97;;
4434;SDS011;46552;52.150;8.428;2022-12-07T14:21:26;12.70;;;2.67;;
4434;SDS011;46552;52.150;8.428;2022-12-07T14:26:51;15.80;;;2.97;;
4434;SDS011;46552;52.150;8.428;2022-12-07T14:29:29;9.97;;;2.43;;
4434;SDS011;46552;52.150;8.428;2022-12-07T14:31:58;16.23;;;2.73;;
4434;SDS011;46552;52.150;8.428;2022-12-07T14:34:52;22.47;;;3.93;;
4434;SDS011;46552;52.150;8.428;2022-12-07T14:37:20;11.83;;;3.30;;
4434;SDS011;46552;52.150;8.428;2022-12-07T14:39:47;13.00;;;2.97;;
4434;SDS011;46552;52.150;8.428;2022-12-07T14:42:14;15.90;;;3.40;;
4434;SDS011;46552;52.150;8.428;2022-12-07T14:44:43;18.43;;;2.87;;
4434;SDS011;46552;52.150;8.428;2022-12-07T14:47:11;5.50;;;2.33;;
4434;SDS011;46552;52.150;8.428;2022-12-07T14:49:38;6.97;;;2.00;;
4434;SDS011;46552;52.150;8.428;2022-12-07T14:52:06;11.60;;;3.60;;
4434;SDS011;46552;52.150;8.428;2022-12-07T14:54:40;14.83;;;3.70;;
4434;SDS011;46552;52.150;8.428;2022-12-07T14:57:08;9.47;;;2.90;;
4434;SDS011;46552;52.150;8.428;2022-12-07T14:59:36;6.00;;;2.53;;
4434;SDS011;46552;52.150;8.428;2022-12-07T15:02:05;14.30;;;3.53;;
4434;SDS011;46552;52.150;8.428;2022-12-07T15:04:33;7.67;;;2.10;;
4434;SDS011;46552;52.150;8.428;2022-12-07T15:07:01;24.60;;;4.17;;
4434;SDS011;46552;52.150;8.428;2022-12-07T15:09:30;9.07;;;3.03;;
4434;SDS011;46552;52.150;8.428;2022-12-07T15:11:57;11.93;;;3.40;;
4434;SDS011;46552;52.150;8.428;2022-12-07T15:14:25;6.57;;;2.57;;
4434;SDS011;46552;52.150;8.428;2022-12-07T15:16:52;10.63;;;3.00;;
4434;SDS011;46552;52.150;8.428;2022-12-07T15:19:21;14.00;;;4.43;;
4434;SDS011;46552;52.150;8.428;2022-12-07T15:21:51;9.83;;;3.13;;
4434;SDS011;46552;52.150;8.428;2022-12-07T15:24:20;7.27;;;2.70;;
4434;SDS011;46552;52.150;8.428;2022-12-07T15:26:49;16.17;;;3.70;;
4434;SDS011;46552;52.150;8.428;2022-12-07T15:29:16;11.03;;;2.70;;
4434;SDS011;46552;52.150;8.428;2022-12-07T15:31:43;11.97;;;3.17;;
4434;SDS011;46552;52.150;8.428;2022-12-07T15:34:10;15.07;;;3.57;;
4434;SDS011;46552;52.150;8.428;2022-12-07T15:36:39;10.80;;;3.27;;
4434;SDS011;46552;52.150;8.428;2022-12-07T15:39:07;10.53;;;3.00;;
4434;SDS011;46552;52.150;8.428;2022-12-07T15:41:35;4.27;;;1.50;;
4434;SDS011;46552;52.150;8.428;2022-12-07T15:44:02;5.80;;;2.43;;